Time;durP1;ratioP1;P1;durP2;ratioP2;P2;SDS_P1;SDS_P2;PMS_P1;PMS_P2;Temp;Humidity;BMP_temperature;BMP_pressure;BME280_temperature;BME280_humidity;BME280_pressure;Samples;Min_cycle;Max_cycle;Signal;HPM_P1;HPM_P2
2022/11/22 00:00:20;;;;;;;9.83;8.70;;;;;;;7.55;93.99;94364.59;5113903;28;20439;-79
2022/11/22 00:02:48;;;;;;;10.13;8.43;;;;;;;7.57;94.09;94359.25;5114012;28;20457;-79
2022/11/22 00:05:15;;;;;;;10.07;9.07;;;;;;;7.52;93.83;94358.75;5113998;28;20449;-79
2022/11/22 00:07:42;;;;;;;8.47;7.37;;;;;;;7.53;93.89;94363.06;5113685;28;20872;-79
2022/11/22 00:10:11;;;;;;;8.73;7.83;;;;;;;7.53;94.40;94350.84;5094607;28;20872;-79
2022/11/22 00:12:38;;;;;;;12.20;8.10;;;;;;;7.59;94.52;94347.72;5113739;28;20778;-79
2022/11/22 00:15:06;;;;;;;10.40;8.10;;;;;;;7.62;94.68;94346.63;5077550;28;20434;-79
2022/11/22 00:17:33;;;;;;;10.30;8.13;;;;;;;7.64;93.96;94350.78;5078102;28;20481;-79
2022/11/22 00:20:02;;;;;;;8.37;7.40;;;;;;;7.65;93.13;94352.44;5113999;28;20446;-77
2022/11/22 00:22:28;;;;;;;9.20;7.50;;;;;;;7.59;92.53;94354.72;5113739;28;20447;-79
2022/11/22 00:24:55;;;;;;;9.97;7.40;;;;;;;7.54;92.97;94362.09;5113513;28;20458;-78
2022/11/22 00:27:22;;;;;;;10.27;7.27;;;;;;;7.51;93.02;94362.31;5113450;28;20460;-79
2022/11/22 00:29:49;;;;;;;9.83;7.70;;;;;;;7.54;93.89;94369.94;5113193;28;20988;-79
2022/11/22 00:32:16;;;;;;;8.20;7.40;;;;;;;7.54;93.92;94364.72;5114161;28;20507;-79
2022/11/22 00:34:43;;;;;;;7.37;6.70;;;;;;;7.51;94.01;94357.09;5114111;28;20503;-79
2022/11/22 00:37:11;;;;;;;8.23;6.90;;;;;;;7.53;94.10;94357.84;5113131;28;20450;-78
2022/11/22 00:39:38;;;;;;;11.20;7.23;;;;;;;7.52;94.04;94364.84;5113189;28;20433;-79
2022/11/22 00:42:04;;;;;;;8.57;7.20;;;;;;;7.45;93.62;94359.25;5112068;28;20450;-78
2022/11/22 00:44:31;;;;;;;9.07;6.93;;;;;;;7.50;93.81;94365.88;5112649;28;20454;-78
2022/11/22 00:46:58;;;;;;;7.13;6.43;;;;;;;7.52;93.95;94362.22;5077107;28;20441;-79
2022/11/22 00:49:25;;;;;;;6.27;5.47;;;;;;;7.49;93.87;94353.78;5076603;28;21018;-79
2022/11/22 00:51:52;;;;;;;7.50;6.72;;;;;;;7.58;93.95;94361.72;5111804;28;20466;-79
2022/11/22 00:54:20;;;;;;;9.30;8.30;;;;;;;7.60;92.60;94372.03;5112903;28;20254;-79
2022/11/22 00:56:46;;;;;;;7.43;6.23;;;;;;;7.59;91.68;94365.16;5113280;28;20843;-80
2022/11/22 00:59:13;;;;;;;6.50;5.83;;;;;;;7.47;91.30;94364.38;5112644;28;20474;-78
2022/11/22 01:01:40;;;;;;;6.03;5.43;;;;;;;7.44;91.39;94364.63;5112692;28;20453;-79
2022/11/22 01:04:07;;;;;;;7.73;5.13;;;;;;;7.41;91.82;94354.44;5093448;28;20441;-79
2022/11/22 01:06:34;;;;;;;6.87;6.27;;;;;;;7.39;91.53;94358.94;5112429;28;20446;-79
2022/11/22 01:09:00;;;;;;;6.57;5.83;;;;;;;7.38;91.55;94354.69;5112396;28;20453;-79
2022/11/22 01:11:31;;;;;;;6.97;5.80;;;;;;;7.37;91.63;94359.06;5093622;28;20984;-78
2022/11/22 01:13:58;;;;;;;7.00;5.53;;;;;;;7.37;91.74;94359.06;5076527;28;20435;-78
2022/11/22 01:16:24;;;;;;;7.00;5.60;;;;;;;7.34;91.83;94359.31;5112682;28;20446;-79
2022/11/22 01:18:51;;;;;;;5.70;5.13;;;;;;;7.33;92.23;94355.06;5112441;28;20448;-79
2022/11/22 01:21:18;;;;;;;6.23;5.63;;;;;;;7.33;92.09;94359.44;5112686;28;20477;-79
2022/11/22 01:23:45;;;;;;;6.93;6.00;;;;;;;7.32;91.69;94358.63;5112682;28;20492;-79
2022/11/22 01:26:12;;;;;;;6.07;5.47;;;;;;;7.29;91.36;94345.81;5112366;28;20437;-79
2022/11/22 01:28:40;;;;;;;6.67;6.03;;;;;;;7.23;91.53;94361.97;5112459;28;20446;-79
2022/11/22 01:31:07;;;;;;;6.80;5.67;;;;;;;7.15;91.97;94351.31;5112781;28;20534;-79
2022/11/22 01:33:34;;;;;;;7.37;6.40;;;;;;;7.12;92.04;94354.16;5076509;28;20943;-78
2022/11/22 01:36:01;;;;;;;5.43;4.90;;;;;;;7.08;92.31;94352.75;5112383;28;20448;-78
2022/11/22 01:38:28;;;;;;;6.00;5.40;;;;;;;7.06;92.44;94354.66;5112478;28;20947;-79
2022/11/22 01:40:55;;;;;;;6.57;5.77;;;;;;;7.01;92.34;94343.75;5112282;28;20938;-79
2022/11/22 01:43:23;;;;;;;5.70;5.20;;;;;;;7.00;92.51;94350.75;5112389;28;20445;-79
2022/11/22 01:45:53;;;;;;;4.93;4.53;;;;;;;6.95;92.07;94346.88;5112327;28;20448;-78
2022/11/22 01:51:45;;;;;;;5.40;4.50;;;;;;;6.87;92.42;94352.66;5112162;28;20544;-80
2022/11/22 01:54:15;;;;;;;6.10;5.50;;;;;;;6.84;92.32;94358.13;5116289;28;20451;-79
2022/11/22 01:56:46;;;;;;;5.60;5.10;;;;;;;6.82;91.49;94350.41;5116310;28;20448;-79
2022/11/22 01:59:17;;;;;;;5.40;4.90;;;;;;;6.76;92.09;94350.91;5116181;27;20994;-79
2022/11/22 02:01:45;;;;;;;5.70;5.13;;;;;;;6.70;91.73;94343.56;5115873;28;20802;-78
2022/11/22 02:04:16;;;;;;;5.57;5.03;;;;;;;6.70;92.26;94350.56;5116150;28;20457;-80
2022/11/22 02:06:51;;;;;;;5.50;5.00;;;;;;;6.67;91.80;94348.19;5115948;28;20448;-79
2022/11/22 02:09:18;;;;;;;5.40;4.77;;;;;;;6.63;92.27;94346.75;5115650;28;20940;-79
2022/11/22 02:11:50;;;;;;;5.93;4.97;;;;;;;6.63;92.31;94347.59;5115959;28;20477;-79
2022/11/22 02:14:21;;;;;;;5.67;5.20;;;;;;;6.64;92.10;94364.06;5079466;28;20442;-79
2022/11/22 02:16:49;;;;;;;6.53;5.73;;;;;;;6.56;92.56;94361.22;5115844;28;20457;-79
2022/11/22 02:19:19;;;;;;;6.63;6.03;;;;;;;6.52;93.03;94358.03;5115514;28;20446;-80
2022/11/22 02:21:51;;;;;;;7.17;5.00;;;;;;;6.49;93.04;94355.66;5115464;28;20461;-79
2022/11/22 02:24:25;;;;;;;5.73;5.23;;;;;;;6.48;92.60;94357.44;5115410;28;20444;-79
2022/11/22 02:26:53;;;;;;;6.10;4.83;;;;;;;6.51;92.73;94354.59;5115696;28;20800;-79
2022/11/22 02:29:20;;;;;;;5.03;4.63;;;;;;;6.48;92.55;94354.84;5115394;28;20940;-79
2022/11/22 02:31:47;;;;;;;6.77;5.30;;;;;;;6.51;92.22;94351.16;5115385;28;20488;-77
2022/11/22 02:34:14;;;;;;;7.07;5.00;;;;;;;6.53;92.50;94350.09;5115301;28;20448;-79
2022/11/22 02:36:44;;;;;;;6.10;5.07;;;;;;;6.57;91.44;94355.88;5115364;28;20441;-79
2022/11/22 02:39:14;;;;;;;5.70;4.97;;;;;;;6.56;91.68;94356.00;5115280;28;20449;-79
2022/11/22 02:41:41;;;;;;;6.00;4.93;;;;;;;6.48;91.87;94349.63;5115321;28;20452;-79
2022/11/22 02:44:12;;;;;;;5.30;4.80;;;;;;;6.43;92.05;94353.53;5115282;28;20444;-79
2022/11/22 02:46:46;;;;;;;5.53;4.17;;;;;;;6.37;91.07;94346.19;5115406;27;20473;-79
2022/11/22 02:49:16;;;;;;;5.50;4.80;;;;;;;6.31;91.70;94333.63;5114988;28;20531;-79
2022/11/22 02:51:43;;;;;;;5.43;4.93;;;;;;;6.39;91.73;94331.28;5115071;28;20559;-79
2022/11/22 02:54:10;;;;;;;7.33;5.53;;;;;;;6.38;91.55;94340.03;5115124;28;20445;-79
2022/11/22 02:56:37;;;;;;;4.83;4.53;;;;;;;6.36;92.35;94326.28;5115262;28;20445;-79
2022/11/22 02:59:04;;;;;;;4.83;4.43;;;;;;;6.36;91.54;94331.47;5114823;28;20475;-78
2022/11/22 03:01:32;;;;;;;5.00;4.50;;;;;;;6.36;92.12;94334.09;5115093;28;20449;-76
2022/11/22 03:03:59;;;;;;;5.40;4.83;;;;;;;6.32;92.06;94332.66;5113851;28;20938;-79
2022/11/22 03:06:26;;;;;;;6.27;5.27;;;;;;;6.31;92.43;94342.25;5114867;28;20451;-79
2022/11/22 03:08:53;;;;;;;6.00;5.40;;;;;;;6.28;92.49;94337.28;5114842;28;20489;-79
2022/11/22 03:11:20;;;;;;;5.23;4.70;;;;;;;6.25;93.18;94341.91;5114791;28;20491;-79
2022/11/22 03:13:46;;;;;;;8.63;5.27;;;;;;;6.24;92.42;94341.09;5114644;28;20479;-79
2022/11/22 03:16:13;;;;;;;5.10;4.70;;;;;;;6.24;92.94;94337.66;5114797;28;20456;-79
2022/11/22 03:18:41;;;;;;;7.47;4.30;;;;;;;6.19;92.73;94324.97;5114114;28;20452;-79
2022/11/22 03:21:10;;;;;;;5.50;5.00;;;;;;;6.17;93.21;94332.91;5115029;28;20449;-79
2022/11/22 03:23:37;;;;;;;5.13;4.63;;;;;;;6.16;93.71;94335.63;5114275;28;20451;-80
2022/11/22 03:26:08;;;;;;;5.47;4.97;;;;;;;6.12;93.95;94332.44;5114376;28;20471;-79
2022/11/22 03:28:34;;;;;;;6.43;5.60;;;;;;;6.06;94.36;94319.88;5114280;28;21033;-79
2022/11/22 03:31:01;;;;;;;7.40;5.63;;;;;;;6.10;93.69;94328.31;5114039;28;20483;-79
2022/11/22 03:33:28;;;;;;;5.83;5.23;;;;;;;6.11;93.71;94324.75;5114172;28;20958;-79
2022/11/22 03:35:57;;;;;;;4.60;4.20;;;;;;;6.09;93.99;94324.88;5114496;28;20453;-79
2022/11/22 03:38:24;;;;;;;5.57;5.03;;;;;;;6.10;93.11;94313.50;5114229;28;20445;-79
2022/11/22 03:40:51;;;;;;;5.33;4.60;;;;;;;6.08;93.76;94320.59;5095130;28;20785;-79
2022/11/22 03:43:18;;;;;;;5.20;4.70;;;;;;;6.08;93.81;94328.41;5078077;28;20432;-79
2022/11/22 03:45:46;;;;;;;5.97;4.93;;;;;;;6.07;93.63;94334.56;5114134;28;20452;-79
2022/11/22 03:48:12;;;;;;;5.10;4.70;;;;;;;6.05;93.75;94320.81;5113990;28;20937;-79
2022/11/22 03:50:40;;;;;;;5.93;5.33;;;;;;;6.08;92.53;94330.19;5113851;28;20455;-79
2022/11/22 03:53:08;;;;;;;6.10;5.50;;;;;;;6.08;92.06;94331.03;5114094;28;20452;-79
2022/11/22 03:55:35;;;;;;;5.70;5.10;;;;;;;6.04;91.72;94332.19;5113766;28;20444;-78
2022/11/22 03:58:02;;;;;;;6.07;5.47;;;;;;;6.04;91.86;94336.56;5113968;28;20949;-79
2022/11/22 04:00:29;;;;;;;6.33;5.73;;;;;;;6.00;92.64;94341.16;5113920;28;20853;-79
2022/11/22 04:02:56;;;;;;;5.30;4.90;;;;;;;5.93;92.90;94333.94;5113539;28;20440;-79
2022/11/22 04:05:23;;;;;;;4.90;4.40;;;;;;;5.92;93.23;94343.53;5113610;28;20504;-79
2022/11/22 04:07:54;;;;;;;5.77;4.70;;;;;;;5.90;93.44;94341.06;5113804;28;20461;-79
2022/11/22 04:10:23;;;;;;;5.50;4.83;;;;;;;5.88;93.59;94347.28;5113362;28;20541;-79
2022/11/22 04:12:50;;;;;;;6.37;5.77;;;;;;;5.91;94.60;94352.28;5113422;28;20482;-79
2022/11/22 04:15:16;;;;;;;5.47;4.97;;;;;;;5.90;94.53;94353.25;5112609;28;20449;-79
2022/11/22 04:17:46;;;;;;;7.30;5.60;;;;;;;5.82;94.28;94353.78;5113342;28;20448;-79
2022/11/22 04:23:01;;;;;;;6.67;5.83;;;;;;;5.84;94.49;94358.88;5113349;28;20430;-79
2022/11/22 04:25:30;;;;;;;5.60;5.00;;;;;;;5.82;93.15;94360.78;5113372;28;20812;-79
2022/11/22 04:27:57;;;;;;;5.30;4.90;;;;;;;5.81;93.42;94362.53;5113064;28;20472;-79
2022/11/22 04:32:44;;;;;;;7.03;6.33;;;;;;;5.80;94.21;94368.69;5113117;28;20500;-79
2022/11/22 04:33:12;;;;;;;6.00;5.40;;;;;;;5.79;94.01;94366.22;5112860;28;20480;-79
2022/11/22 04:35:40;;;;;;;6.97;5.33;;;;;;;5.76;94.88;94369.00;5113705;28;20468;-80
2022/11/22 04:38:07;;;;;;;6.40;5.80;;;;;;;5.89;99.16;94372.38;5114537;28;20797;-78
2022/11/22 04:40:36;;;;;;;8.10;6.37;;;;;;;5.96;98.07;94363.19;5114969;28;20908;-78
2022/11/22 04:45:47;;;;;;;6.20;5.40;;;;;;;5.85;94.67;94376.16;5114392;28;20847;-78
2022/11/22 04:48:14;;;;;;;7.93;6.30;;;;;;;5.84;94.27;94372.72;5114450;28;20442;-78
2022/11/22 04:53:27;;;;;;;6.00;5.40;;;;;;;5.77;92.68;94394.94;5114108;28;20428;-78
2022/11/22 04:55:56;;;;;;;5.03;4.53;;;;;;;5.68;93.55;94389.59;5114559;28;20452;-78
2022/11/22 04:58:23;;;;;;;5.63;5.00;;;;;;;5.62;93.22;94390.88;5114196;28;20472;-79
2022/11/22 05:00:50;;;;;;;5.83;5.33;;;;;;;5.62;93.67;94400.44;5114237;28;20911;-78
2022/11/22 05:03:17;;;;;;;8.03;5.00;;;;;;;5.59;94.18;94398.91;5113820;28;20440;-79
2022/11/22 05:05:45;;;;;;;5.40;5.00;;;;;;;5.54;94.31;94398.41;5111096;28;20452;-79
2022/11/22 05:08:12;;;;;;;6.10;5.60;;;;;;;5.52;93.44;94406.34;5104381;28;20453;-78
2022/11/22 05:13:33;;;;;;;7.67;6.90;;;;;;;5.53;94.06;94381.16;5031219;28;20442;-78
2022/11/22 05:16:01;;;;;;;10.53;5.47;;;;;;;5.55;93.56;94374.88;5037933;28;20449;-78
2022/11/22 05:18:29;;;;;;;6.90;6.20;;;;;;;5.55;92.39;94377.50;5051154;28;20542;-79
2022/11/22 05:20:56;;;;;;;7.70;6.90;;;;;;;5.49;93.18;94377.94;5047262;28;20458;-79
2022/11/22 05:26:10;;;;;;;6.60;6.00;;;;;;;5.47;93.66;94391.97;5049180;28;20571;-79
2022/11/22 05:28:39;;;;;;;6.37;5.70;;;;;;;5.45;93.67;94389.50;5053666;28;20453;-79
2022/11/22 05:31:08;;;;;;;7.90;5.90;;;;;;;5.40;93.33;94401.19;5055664;28;20441;-78
2022/11/22 05:33:36;;;;;;;8.87;7.90;;;;;;;5.36;94.19;94404.94;5049890;28;20833;-78
2022/11/22 05:36:04;;;;;;;9.90;6.70;;;;;;;5.24;94.56;94396.25;5033690;28;20533;-79
2022/11/22 05:38:31;;;;;;;7.80;7.03;;;;;;;5.23;94.74;94392.00;5044903;28;20450;-79
2022/11/22 05:40:58;;;;;;;6.23;5.33;;;;;;;5.28;96.06;94390.72;5052687;28;20446;-79
2022/11/22 05:43:24;;;;;;;6.97;6.27;;;;;;;5.32;96.95;94391.34;5053838;28;20446;-79
2022/11/22 05:45:53;;;;;;;6.10;5.50;;;;;;;5.31;96.25;94387.06;5054574;28;20445;-78
2022/11/22 05:48:19;;;;;;;5.77;5.27;;;;;;;5.27;94.47;94402.06;5054789;28;20449;-78
2022/11/22 05:50:46;;;;;;;7.73;6.10;;;;;;;5.22;94.69;94398.16;5104248;28;20447;-80
2022/11/22 05:53:13;;;;;;;9.13;6.17;;;;;;;5.29;96.30;94404.56;5107110;28;20960;-79
2022/11/22 05:55:40;;;;;;;9.40;6.37;;;;;;;5.39;96.72;94404.72;5096232;28;20443;-79
2022/11/22 05:58:07;;;;;;;7.47;6.37;;;;;;;5.51;96.64;94407.28;5087170;28;20468;-77
2022/11/22 06:00:33;;;;;;;12.60;8.73;;;;;;;5.13;95.73;94407.41;5096273;28;20453;-78
2022/11/22 06:03:02;;;;;;;7.80;7.00;;;;;;;5.27;95.53;94409.03;5102100;28;20560;-77
2022/11/22 06:05:30;;;;;;;15.80;9.83;;;;;;;5.20;95.07;94413.00;5109694;28;20447;-77
2022/11/22 06:07:58;;;;;;;13.50;10.40;;;;;;;5.23;94.20;94405.84;5103901;28;20459;-77
2022/11/22 06:10:25;;;;;;;13.23;10.90;;;;;;;5.36;94.64;94425.75;5112875;28;20419;-78
2022/11/22 06:12:53;;;;;;;11.53;10.33;;;;;;;5.49;93.85;94424.78;5110388;28;20532;-78
2022/11/22 06:15:20;;;;;;;14.40;10.17;;;;;;;5.65;94.29;94421.03;5104597;28;20859;-79
2022/11/22 06:17:47;;;;;;;12.03;10.07;;;;;;;5.73;93.54;94421.31;5117159;28;20526;-78
2022/11/22 06:20:16;;;;;;;11.20;9.90;;;;;;;5.69;93.52;94417.28;5115608;28;20448;-77
2022/11/22 06:22:43;;;;;;;17.33;11.50;;;;;;;5.77;92.92;94418.34;5097746;28;20455;-76
2022/11/22 06:25:10;;;;;;;14.07;10.40;;;;;;;5.71;93.26;94415.38;5078748;28;21029;-77
2022/11/22 06:27:39;;;;;;;12.70;11.03;;;;;;;5.62;92.93;94416.06;5115829;28;20441;-77
2022/11/22 06:30:08;;;;;;;15.63;10.37;;;;;;;5.53;93.30;94412.38;5097336;28;20444;-76
2022/11/22 06:32:40;;;;;;;15.50;11.10;;;;;;;5.60;94.19;94429.19;5106581;28;20509;-77
2022/11/22 06:35:07;;;;;;;15.13;11.20;;;;;;;5.69;94.99;94410.28;5115755;28;20805;-75
2022/11/22 06:37:35;;;;;;;11.67;9.70;;;;;;;5.74;93.89;94412.56;5115824;28;20534;-75
2022/11/22 06:40:03;;;;;;;16.80;10.80;;;;;;;5.91;95.96;94422.59;5112324;28;20456;-77
2022/11/22 06:42:29;;;;;;;12.70;11.10;;;;;;;5.98;94.17;94422.97;5115255;28;20993;-77
2022/11/22 06:44:56;;;;;;;14.47;11.67;;;;;;;6.06;93.99;94411.03;5080462;28;20934;-77
2022/11/22 06:47:23;;;;;;;15.90;10.00;;;;;;;6.08;92.83;94424.78;5079913;28;20448;-76
2022/11/22 06:49:50;;;;;;;14.27;9.60;;;;;;;6.20;93.44;94439.50;5115283;28;20459;-76
2022/11/22 06:52:17;;;;;;;17.87;11.87;;;;;;;6.36;92.61;94438.31;5115835;27;20487;-77
2022/11/22 06:54:45;;;;;;;18.77;12.20;;;;;;;6.49;92.38;94433.84;5114809;28;20450;-77
2022/11/22 06:57:14;;;;;;;10.13;9.00;;;;;;;6.46;91.20;94432.31;5114388;28;21196;-77
2022/11/22 06:59:41;;;;;;;8.00;6.80;;;;;;;6.47;91.47;94435.75;5114735;28;20473;-76
2022/11/22 07:02:11;;;;;;;9.87;7.60;;;;;;;6.49;91.42;94439.06;5115014;27;20458;-77
2022/11/22 07:04:49;;;;;;;6.20;5.60;;;;;;;6.42;90.69;94432.66;5114900;28;20476;-77
2022/11/22 07:07:20;;;;;;;6.20;5.60;;;;;;;6.44;90.91;94430.78;5114968;28;20486;-77
2022/11/22 07:09:48;;;;;;;8.93;6.90;;;;;;;6.36;91.76;94439.19;5114440;28;20458;-77
2022/11/22 07:12:15;;;;;;;6.43;5.80;;;;;;;6.34;91.77;94435.81;5078403;28;20495;-76
2022/11/22 07:14:42;;;;;;;5.07;4.67;;;;;;;6.42;91.76;94443.09;5114506;28;20447;-76
2022/11/22 07:17:11;;;;;;;5.20;4.70;;;;;;;6.49;91.43;94431.25;5114645;28;20467;-77
2022/11/22 07:19:38;;;;;;;5.90;5.20;;;;;;;6.53;91.40;94436.09;5114226;28;20444;-77
2022/11/22 07:22:05;;;;;;;6.53;5.80;;;;;;;6.59;90.78;94426.16;5114211;28;20440;-77
2022/11/22 07:24:31;;;;;;;5.73;5.23;;;;;;;6.64;91.27;94416.19;5114542;28;20452;-78
2022/11/22 07:27:00;;;;;;;5.60;5.10;;;;;;;6.62;91.53;94423.31;5114470;28;20449;-77
2022/11/22 07:29:26;;;;;;;8.87;5.90;;;;;;;6.64;90.64;94421.41;5114118;28;20439;-77
2022/11/22 07:31:53;;;;;;;5.20;4.67;;;;;;;6.55;90.82;94407.31;5114458;28;20460;-77
2022/11/22 07:34:20;;;;;;;6.23;5.57;;;;;;;6.56;90.46;94422.00;5115593;28;20443;-77
2022/11/22 07:36:47;;;;;;;7.97;7.17;;;;;;;6.58;90.75;94424.50;5114944;28;20463;-77
2022/11/22 07:39:14;;;;;;;6.40;5.80;;;;;;;6.63;91.67;94415.38;5115110;28;20443;-77
2022/11/22 07:41:41;;;;;;;7.87;6.10;;;;;;;6.72;92.11;94408.63;5115280;28;20449;-77
2022/11/22 07:44:09;;;;;;;11.40;9.20;;;;;;;6.81;91.29;94403.53;5115649;27;20475;-78
2022/11/22 07:46:36;;;;;;;9.97;8.97;;;;;;;6.96;91.25;94401.50;5115377;28;20444;-77
2022/11/22 07:49:02;;;;;;;13.37;10.27;;;;;;;7.10;90.49;94398.63;5115797;28;20460;-77
2022/11/22 07:51:30;;;;;;;19.93;15.77;;;;;;;7.11;90.27;94384.63;5115206;28;20442;-77
2022/11/22 07:53:57;;;;;;;20.70;14.17;;;;;;;6.97;90.51;94408.38;5115326;28;20484;-78
2022/11/22 07:56:24;;;;;;;15.40;11.90;;;;;;;7.13;90.25;94408.81;5115131;28;20446;-76
2022/11/22 07:58:50;;;;;;;14.50;11.10;;;;;;;7.01;89.85;94409.81;5115504;28;20506;-77
2022/11/22 08:01:20;;;;;;;13.13;11.50;;;;;;;6.75;90.22;94419.66;5115116;28;20452;-76
2022/11/22 08:03:47;;;;;;;12.70;10.60;;;;;;;7.02;90.59;94415.84;5115333;28;20534;-78
2022/11/22 08:06:14;;;;;;;12.40;9.63;;;;;;;7.20;90.52;94414.38;5115516;28;20445;-79
2022/11/22 08:08:41;;;;;;;16.77;13.13;;;;;;;7.20;91.46;94408.31;5115609;28;20848;-77
2022/11/22 08:11:08;;;;;;;17.87;13.60;;;;;;;7.16;91.42;94407.75;5115625;28;20448;-76
2022/11/22 08:13:35;;;;;;;14.30;11.70;;;;;;;7.20;91.44;94410.94;5115263;27;20469;-78
2022/11/22 08:16:03;;;;;;;17.50;13.67;;;;;;;7.37;91.21;94403.44;5115509;27;20434;-76
2022/11/22 08:18:32;;;;;;;14.23;12.07;;;;;;;7.29;91.58;94407.63;5115254;28;20446;-77
2022/11/22 08:21:04;;;;;;;18.33;11.50;;;;;;;7.32;92.00;94409.97;5114780;28;20956;-77
2022/11/22 08:23:31;;;;;;;18.90;11.67;;;;;;;7.50;92.34;94411.09;5114907;28;20457;-75
2022/11/22 08:25:58;;;;;;;14.57;11.00;;;;;;;7.64;91.56;94412.63;5114648;28;20442;-78
2022/11/22 08:28:25;;;;;;;12.33;9.70;;;;;;;7.64;90.61;94402.16;5114905;28;20968;-78
2022/11/22 08:30:52;;;;;;;12.17;9.60;;;;;;;7.63;90.79;94400.50;5078886;28;20446;-75
2022/11/22 08:33:19;;;;;;;11.40;9.50;;;;;;;7.39;92.01;94398.91;5114561;28;20976;-75
2022/11/22 08:35:50;;;;;;;10.90;9.50;;;;;;;7.23;93.60;94377.63;5115132;28;20449;-76
2022/11/22 08:38:17;;;;;;;14.10;10.47;;;;;;;7.17;92.39;94374.66;5095893;28;20478;-76
2022/11/22 08:40:44;;;;;;;12.77;9.97;;;;;;;7.21;93.23;94368.25;5115087;28;20450;-78
2022/11/22 08:43:11;;;;;;;12.67;9.50;;;;;;;7.35;93.64;94366.19;5114793;28;20441;-77
2022/11/22 08:45:38;;;;;;;12.77;10.30;;;;;;;7.33;94.07;94370.72;5114530;28;20439;-76
2022/11/22 08:48:05;;;;;;;17.07;11.67;;;;;;;7.45;94.39;94343.59;5114568;28;20491;-78
2022/11/22 08:50:31;;;;;;;15.23;11.20;;;;;;;7.48;94.09;94350.34;5078853;28;20465;-78
2022/11/22 08:53:01;;;;;;;16.33;10.37;;;;;;;7.53;93.92;94356.06;5114118;28;20485;-78
2022/11/22 08:55:28;;;;;;;17.93;12.37;;;;;;;7.37;93.94;94350.41;5114722;28;20434;-77
2022/11/22 08:57:58;;;;;;;15.77;11.07;;;;;;;7.45;94.82;94343.59;5114130;28;20465;-77
2022/11/22 09:00:25;;;;;;;13.27;11.00;;;;;;;7.47;94.50;94336.47;5114019;28;20473;-76
2022/11/22 09:02:52;;;;;;;12.70;10.67;;;;;;;7.56;94.13;94342.75;5113745;28;20446;-75
2022/11/22 09:05:19;;;;;;;13.33;10.37;;;;;;;7.43;94.06;94335.06;5114619;28;20438;-76
2022/11/22 09:07:46;;;;;;;12.90;11.23;;;;;;;7.58;94.30;94334.78;5078248;28;20453;-76
2022/11/22 09:10:15;;;;;;;19.03;13.33;;;;;;;7.66;94.57;94335.81;5113843;28;20447;-76
2022/11/22 09:12:44;;;;;;;17.23;11.97;;;;;;;7.69;94.78;94335.56;5078545;28;20512;-75
2022/11/22 09:15:11;;;;;;;16.70;13.37;;;;;;;7.82;93.62;94338.00;5114023;28;20443;-76
2022/11/22 09:17:38;;;;;;;20.13;14.17;;;;;;;7.92;94.36;94325.81;5113991;28;20460;-76
2022/11/22 09:20:06;;;;;;;14.97;12.23;;;;;;;7.83;93.54;94323.97;5114070;28;20447;-76
2022/11/22 09:22:33;;;;;;;19.57;13.17;;;;;;;7.94;93.29;94325.69;5113944;28;20443;-76
2022/11/22 09:25:00;;;;;;;20.07;13.00;;;;;;;7.98;93.35;94321.84;5114126;28;20447;-76
2022/11/22 09:27:28;;;;;;;17.63;12.70;;;;;;;7.92;92.97;94333.66;5113493;28;21100;-76
2022/11/22 09:29:55;;;;;;;14.17;12.07;;;;;;;8.03;93.06;94336.19;5113739;28;20451;-76
2022/11/22 09:32:22;;;;;;;18.97;12.20;;;;;;;7.99;93.15;94313.91;5113500;28;20832;-76
2022/11/22 09:34:49;;;;;;;16.10;12.10;;;;;;;7.91;92.61;94310.28;5113932;28;20463;-76
2022/11/22 09:37:18;;;;;;;16.67;12.20;;;;;;;8.04;93.39;94323.94;5113941;28;20442;-76
2022/11/22 09:39:45;;;;;;;18.40;13.07;;;;;;;8.15;92.69;94315.22;5113581;28;20443;-78
2022/11/22 09:42:30;;;;;;;16.37;13.57;;;;;;;8.08;92.03;94317.50;5113600;28;20796;-78
2022/11/22 09:45:25;;;;;;;19.83;13.73;;;;;;;8.19;91.80;94312.22;5113434;28;20449;-78
2022/11/22 09:48:04;;;;;;;15.37;11.57;;;;;;;8.29;91.66;94314.88;5112629;28;20444;-77
2022/11/22 09:50:38;;;;;;;21.90;11.20;;;;;;;8.31;91.61;94310.34;5112934;28;20933;-79
2022/11/22 09:53:17;;;;;;;13.43;11.40;;;;;;;8.23;91.79;94305.78;5112901;28;20486;-76
2022/11/22 09:55:47;;;;;;;12.10;10.90;;;;;;;8.28;91.04;94310.59;5113526;28;20451;-76
2022/11/22 09:58:24;;;;;;;20.57;12.70;;;;;;;8.25;91.37;94303.03;5113445;28;20478;-77
2022/11/22 10:00:56;;;;;;;16.43;10.57;;;;;;;8.30;92.13;94306.91;5113615;28;20434;-78
2022/11/22 10:03:30;;;;;;;12.70;9.60;;;;;;;8.25;92.04;94295.19;5113553;28;20454;-76
2022/11/22 10:06:01;;;;;;;15.90;12.20;;;;;;;8.04;90.63;94296.03;5113084;28;20521;-77
2022/11/22 10:08:39;;;;;;;18.93;13.50;;;;;;;8.25;90.21;94298.63;5113877;28;20865;-76
2022/11/22 10:11:15;;;;;;;11.77;9.87;;;;;;;8.08;91.12;94294.81;5112982;28;20504;-75
2022/11/22 10:13:50;;;;;;;12.70;10.20;;;;;;;8.26;90.32;94283.78;5114087;28;20585;-76
2022/11/22 10:16:23;;;;;;;11.47;8.47;;;;;;;8.44;91.31;94274.41;5097423;28;20438;-76
2022/11/22 10:18:56;;;;;;;11.67;9.43;;;;;;;8.48;89.79;94267.09;5117622;28;20438;-75
2022/11/22 10:21:23;;;;;;;9.80;8.00;;;;;;;8.40;88.86;94259.94;5117079;28;20944;-76
2022/11/22 10:23:50;;;;;;;8.67;7.77;;;;;;;8.34;88.60;94263.06;5117582;28;20435;-77
2022/11/22 10:26:23;;;;;;;9.52;7.88;;;;;;;8.50;88.07;94255.56;5116915;27;20438;-76
2022/11/22 10:29:12;;;;;;;8.53;7.60;;;;;;;8.57;87.88;94240.97;5116991;27;20208;-76
2022/11/22 10:31:48;;;;;;;11.40;9.00;;;;;;;8.68;91.50;94238.28;5116885;28;20449;-76
2022/11/22 10:34:25;;;;;;;11.83;9.30;;;;;;;8.81;89.46;94240.63;5117050;28;20530;-76
2022/11/22 10:36:59;;;;;;;9.73;7.57;;;;;;;8.76;89.31;94242.00;5117248;28;20435;-76
2022/11/22 10:39:54;;;;;;;13.33;9.20;;;;;;;8.91;88.44;94233.59;5117078;28;20447;-76
2022/11/22 10:42:31;;;;;;;9.83;8.83;;;;;;;9.05;88.18;94229.78;5116357;28;20443;-76
2022/11/22 10:45:05;;;;;;;11.87;9.93;;;;;;;9.09;87.82;94231.16;5115820;28;20454;-76
2022/11/22 10:47:48;;;;;;;13.13;9.67;;;;;;;9.21;88.23;94230.03;5115823;28;20481;-76
2022/11/22 10:50:22;;;;;;;9.90;8.60;;;;;;;9.22;86.64;94223.84;5115154;28;20455;-76
2022/11/22 10:52:59;;;;;;;10.60;9.43;;;;;;;9.25;86.64;94218.34;5096371;28;20434;-76
2022/11/22 10:55:41;;;;;;;11.83;10.27;;;;;;;9.27;85.18;94211.19;5115002;28;20450;-76
2022/11/22 10:58:17;;;;;;;16.20;10.57;;;;;;;9.26;85.92;94212.16;5115091;28;20883;-76
2022/11/22 11:00:47;;;;;;;19.20;12.40;;;;;;;9.23;85.88;94215.00;5115178;28;20470;-76
2022/11/22 11:03:27;;;;;;;15.33;10.77;;;;;;;9.13;86.00;94216.81;5079067;28;20440;-77
2022/11/22 11:05:59;;;;;;;17.93;10.83;;;;;;;9.10;85.88;94211.88;5115277;28;20435;-76
2022/11/22 11:08:32;;;;;;;23.17;15.10;;;;;;;9.04;86.08;94204.56;5114700;28;20455;-76
2022/11/22 11:11:01;;;;;;;22.97;14.40;;;;;;;9.07;87.36;94209.53;5114765;28;20454;-76
2022/11/22 11:13:34;;;;;;;26.50;14.60;;;;;;;9.19;88.30;94204.97;5114485;28;20939;-76
2022/11/22 11:16:04;;;;;;;16.23;12.43;;;;;;;9.26;89.08;94217.38;5095528;28;20922;-77
2022/11/22 11:18:39;;;;;;;25.27;15.37;;;;;;;9.34;87.99;94208.00;5114911;28;20444;-77
2022/11/22 11:21:07;;;;;;;22.67;15.77;;;;;;;9.34;89.08;94205.38;5114763;28;20454;-77
2022/11/22 11:23:34;;;;;;;24.27;14.83;;;;;;;9.35;88.73;94204.41;5078791;28;20802;-76
2022/11/22 11:26:19;;;;;;;29.40;20.83;;;;;;;9.37;88.03;94211.16;5114109;28;20451;-76
2022/11/22 11:28:46;;;;;;;23.00;13.00;;;;;;;9.39;87.68;94205.78;5114680;28;20843;-77
2022/11/22 11:31:14;;;;;;;19.33;12.07;;;;;;;9.38;86.88;94214.59;5114300;28;20444;-75
2022/11/22 11:33:43;;;;;;;21.93;10.50;;;;;;;9.38;86.42;94212.81;5114329;28;20475;-77
2022/11/22 11:36:11;;;;;;;18.03;12.13;;;;;;;9.38;87.21;94198.91;5114466;28;20958;-77
2022/11/22 11:38:52;;;;;;;17.47;11.50;;;;;;;9.39;87.40;94192.69;5114723;28;20451;-76
2022/11/22 11:41:22;;;;;;;19.70;12.50;;;;;;;9.43;86.77;94183.59;5114629;28;20933;-77
2022/11/22 11:43:50;;;;;;;19.97;13.57;;;;;;;9.42;89.07;94193.22;5115811;28;20440;-77
2022/11/22 11:46:19;;;;;;;19.40;13.07;;;;;;;9.63;92.04;94180.78;5115375;28;20497;-77
2022/11/22 11:48:48;;;;;;;19.40;15.00;;;;;;;9.62;88.06;94180.94;5115276;28;20439;-76
2022/11/22 11:51:18;;;;;;;17.73;14.00;;;;;;;9.61;87.75;94192.38;5115261;28;20443;-77
2022/11/22 11:53:53;;;;;;;14.03;11.37;;;;;;;9.61;86.66;94180.13;5079820;28;20479;-78
2022/11/22 11:56:46;;;;;;;16.43;12.60;;;;;;;9.52;86.75;94165.22;5115691;28;20433;-77
2022/11/22 11:59:16;;;;;;;16.50;13.37;;;;;;;9.43;87.84;94154.78;5052314;28;20481;-77